RYR1699 LEIB-LEVC
Flight info
| Callsign | RYR1699 |
|---|---|
| Flight time | 0h 25m |
| Altitude | 13000 |
| Route | XOSTA M134 NINOT |
| Aircraft | B738/M-SDE2E3FGHIRWXY/LB1 |
Departure
| Time | 2026-05-05 15:40 |
|---|---|
| Airport | Ibiza Airport (LEIB) |
Arrival
| Time | 2026-05-05 16:06 |
|---|---|
| Airport | Valencia Airport (LEVC) |
| Time | Latitude | Longitude | Altitude | Speed | Heading |
|---|---|---|---|---|---|
| 2026-05-05 15:24 | 38.87474 | 1.37043 | 43 ft | 0 kts | 332° |
| 2026-05-05 15:36 | 38.87480 | 1.37039 | 43 ft | 4 kts | 331° |
| 2026-05-05 15:36 | 38.87533 | 1.37033 | 45 ft | 11 kts | 29° |
| 2026-05-05 15:37 | 38.87582 | 1.37142 | 46 ft | 16 kts | 61° |
| 2026-05-05 15:37 | 38.87646 | 1.37290 | 49 ft | 22 kts | 62° |
| 2026-05-05 15:37 | 38.87697 | 1.37458 | 48 ft | 20 kts | 105° |
| 2026-05-05 15:37 | 38.87590 | 1.37568 | 43 ft | 19 kts | 108° |
| 2026-05-05 15:38 | 38.87647 | 1.37730 | 41 ft | 21 kts | 62° |
| 2026-05-05 15:38 | 38.87719 | 1.37907 | 37 ft | 24 kts | 60° |
| 2026-05-05 15:38 | 38.87795 | 1.38091 | 35 ft | 20 kts | 60° |
| 2026-05-05 15:38 | 38.87867 | 1.38261 | 30 ft | 23 kts | 62° |
| 2026-05-05 15:39 | 38.87943 | 1.38447 | 32 ft | 24 kts | 62° |
| 2026-05-05 15:39 | 38.88003 | 1.38615 | 31 ft | 16 kts | 96° |
| 2026-05-05 15:39 | 38.87913 | 1.38695 | 28 ft | 18 kts | 152° |
| 2026-05-05 15:39 | 38.87833 | 1.38633 | 27 ft | 16 kts | 239° |
| 2026-05-05 15:40 | 38.87718 | 1.38361 | 28 ft | 67 kts | 242° |
| 2026-05-05 15:40 | 38.87394 | 1.37586 | 29 ft | 128 kts | 242° |
| 2026-05-05 15:40 | 38.86900 | 1.36409 | 173 ft | 165 kts | 242° |
| 2026-05-05 15:40 | 38.86334 | 1.35027 | 649 ft | 184 kts | 243° |
| 2026-05-05 15:41 | 38.85776 | 1.33562 | 1461 ft | 182 kts | 245° |
| 2026-05-05 15:41 | 38.85196 | 1.32038 | 1940 ft | 203 kts | 245° |
| 2026-05-05 15:41 | 38.84558 | 1.30379 | 2381 ft | 212 kts | 245° |
| 2026-05-05 15:41 | 38.83900 | 1.28677 | 2951 ft | 211 kts | 245° |
| 2026-05-05 15:42 | 38.83241 | 1.26979 | 3569 ft | 214 kts | 244° |
| 2026-05-05 15:42 | 38.82672 | 1.25224 | 4239 ft | 215 kts | 261° |
| 2026-05-05 15:42 | 38.82722 | 1.23225 | 4585 ft | 239 kts | 276° |
| 2026-05-05 15:42 | 38.82944 | 1.21039 | 5074 ft | 253 kts | 276° |
| 2026-05-05 15:43 | 38.83168 | 1.18779 | 5792 ft | 258 kts | 276° |
| 2026-05-05 15:43 | 38.83391 | 1.16489 | 6578 ft | 260 kts | 276° |
| 2026-05-05 15:43 | 38.83956 | 1.14281 | 7324 ft | 266 kts | 299° |
| 2026-05-05 15:43 | 38.85092 | 1.12399 | 8140 ft | 269 kts | 308° |
| 2026-05-05 15:44 | 38.86387 | 1.10623 | 8824 ft | 276 kts | 310° |
| 2026-05-05 15:44 | 38.87735 | 1.08842 | 9543 ft | 280 kts | 310° |
| 2026-05-05 15:44 | 38.89103 | 1.07038 | 10236 ft | 284 kts | 309° |
| 2026-05-05 15:44 | 38.90505 | 1.05175 | 10726 ft | 296 kts | 309° |
| 2026-05-05 15:45 | 38.91958 | 1.03229 | 11209 ft | 307 kts | 309° |
| 2026-05-05 15:45 | 38.93451 | 1.01220 | 11792 ft | 314 kts | 308° |
| 2026-05-05 15:45 | 38.94929 | 0.99225 | 12472 ft | 318 kts | 308° |
| 2026-05-05 15:45 | 38.96456 | 0.97161 | 12849 ft | 319 kts | 308° |
| 2026-05-05 15:46 | 38.97965 | 0.95118 | 12895 ft | 318 kts | 308° |
| 2026-05-05 15:46 | 38.99480 | 0.93062 | 12896 ft | 317 kts | 308° |
| 2026-05-05 15:46 | 39.01016 | 0.90973 | 12903 ft | 317 kts | 308° |
| 2026-05-05 15:46 | 39.02534 | 0.88906 | 12905 ft | 318 kts | 308° |
| 2026-05-05 15:47 | 39.04033 | 0.86862 | 12896 ft | 318 kts | 308° |
| 2026-05-05 15:47 | 39.05058 | 0.85465 | 12896 ft | 319 kts | 308° |
| 2026-05-05 15:47 | 39.07076 | 0.82711 | 12894 ft | 319 kts | 308° |
| 2026-05-05 15:47 | 39.08595 | 0.80638 | 12877 ft | 318 kts | 308° |
| 2026-05-05 15:48 | 39.10100 | 0.78583 | 12591 ft | 311 kts | 308° |
| 2026-05-05 15:48 | 39.11091 | 0.77232 | 12411 ft | 303 kts | 308° |
| 2026-05-05 15:48 | 39.12512 | 0.75293 | 12173 ft | 292 kts | 307° |
| 2026-05-05 15:48 | 39.13614 | 0.73247 | 11888 ft | 274 kts | 288° |
| 2026-05-05 15:49 | 39.14279 | 0.70995 | 11650 ft | 267 kts | 287° |
| 2026-05-05 15:49 | 39.14924 | 0.68767 | 11401 ft | 264 kts | 287° |
| 2026-05-05 15:49 | 39.15567 | 0.66552 | 11151 ft | 263 kts | 287° |
| 2026-05-05 15:49 | 39.16209 | 0.64347 | 10905 ft | 264 kts | 287° |
| 2026-05-05 15:50 | 39.16861 | 0.62111 | 10680 ft | 268 kts | 287° |
| 2026-05-05 15:50 | 39.17524 | 0.59843 | 10443 ft | 272 kts | 287° |
| 2026-05-05 15:50 | 39.18195 | 0.57550 | 10203 ft | 274 kts | 287° |
| 2026-05-05 15:50 | 39.18867 | 0.55255 | 9980 ft | 272 kts | 288° |
| 2026-05-05 15:51 | 39.19528 | 0.53002 | 9904 ft | 266 kts | 288° |
| 2026-05-05 15:51 | 39.20177 | 0.50783 | 9895 ft | 264 kts | 288° |
| 2026-05-05 15:51 | 39.20827 | 0.48555 | 9899 ft | 266 kts | 287° |
| 2026-05-05 15:51 | 39.21485 | 0.46296 | 9663 ft | 271 kts | 288° |
| 2026-05-05 15:52 | 39.22138 | 0.44055 | 9399 ft | 269 kts | 288° |
| 2026-05-05 15:52 | 39.22788 | 0.41823 | 9118 ft | 261 kts | 288° |
| 2026-05-05 15:52 | 39.23414 | 0.39676 | 8843 ft | 252 kts | 288° |
| 2026-05-05 15:52 | 39.24024 | 0.37580 | 8584 ft | 248 kts | 288° |
| 2026-05-05 15:53 | 39.24630 | 0.35493 | 8330 ft | 248 kts | 288° |
| 2026-05-05 15:53 | 39.25239 | 0.33388 | 8087 ft | 254 kts | 288° |
| 2026-05-05 15:53 | 39.25863 | 0.31230 | 7847 ft | 258 kts | 288° |
| 2026-05-05 15:53 | 39.26489 | 0.29069 | 7593 ft | 256 kts | 288° |
| 2026-05-05 15:54 | 39.27111 | 0.26922 | 7337 ft | 254 kts | 288° |
| 2026-05-05 15:54 | 39.27726 | 0.24796 | 7091 ft | 250 kts | 288° |
| 2026-05-05 15:54 | 39.28323 | 0.22731 | 6846 ft | 247 kts | 288° |
| 2026-05-05 15:54 | 39.28921 | 0.20660 | 6604 ft | 246 kts | 288° |
| 2026-05-05 15:55 | 39.29518 | 0.18590 | 6362 ft | 245 kts | 288° |
| 2026-05-05 15:55 | 39.30112 | 0.16529 | 6106 ft | 244 kts | 288° |
| 2026-05-05 15:55 | 39.30703 | 0.14478 | 5852 ft | 242 kts | 288° |
| 2026-05-05 15:55 | 39.31279 | 0.12476 | 5609 ft | 232 kts | 288° |
| 2026-05-05 15:56 | 39.31825 | 0.10581 | 5365 ft | 218 kts | 288° |
| 2026-05-05 15:56 | 39.32339 | 0.08797 | 5115 ft | 206 kts | 288° |
| 2026-05-05 15:56 | 39.32825 | 0.07104 | 4918 ft | 198 kts | 289° |
| 2026-05-05 15:56 | 39.33305 | 0.05427 | 4775 ft | 200 kts | 289° |
| 2026-05-05 15:57 | 39.33788 | 0.03741 | 4592 ft | 201 kts | 289° |
| 2026-05-05 15:57 | 39.34273 | 0.02049 | 4413 ft | 201 kts | 289° |
| 2026-05-05 15:57 | 39.34757 | 0.00357 | 4234 ft | 201 kts | 289° |
| 2026-05-05 15:57 | 39.35231 | -0.01299 | 4062 ft | 201 kts | 288° |
| 2026-05-05 15:58 | 39.35717 | -0.02997 | 3874 ft | 202 kts | 289° |
| 2026-05-05 15:58 | 39.36199 | -0.04685 | 3704 ft | 202 kts | 289° |
| 2026-05-05 15:58 | 39.36686 | -0.06392 | 3548 ft | 204 kts | 289° |
| 2026-05-05 15:58 | 39.37179 | -0.08118 | 3428 ft | 206 kts | 289° |
| 2026-05-05 15:59 | 39.37677 | -0.09861 | 3298 ft | 206 kts | 288° |
| 2026-05-05 15:59 | 39.38175 | -0.11597 | 3169 ft | 205 kts | 289° |
| 2026-05-05 15:59 | 39.38673 | -0.13311 | 3038 ft | 205 kts | 289° |
| 2026-05-05 15:59 | 39.39164 | -0.15029 | 2987 ft | 202 kts | 285° |
| 2026-05-05 16:00 | 39.39586 | -0.16737 | 2983 ft | 199 kts | 287° |
| 2026-05-05 16:00 | 39.40065 | -0.18422 | 2984 ft | 200 kts | 285° |
| 2026-05-05 16:00 | 39.40001 | -0.20199 | 2999 ft | 204 kts | 246° |
| 2026-05-05 16:00 | 39.39428 | -0.21863 | 2948 ft | 204 kts | 262° |
| 2026-05-05 16:01 | 39.39633 | -0.23622 | 2992 ft | 200 kts | 290° |
| 2026-05-05 16:01 | 39.40234 | -0.25251 | 2992 ft | 201 kts | 295° |
| 2026-05-05 16:01 | 39.40866 | -0.26864 | 2981 ft | 198 kts | 295° |
| 2026-05-05 16:01 | 39.41466 | -0.28429 | 2976 ft | 189 kts | 295° |
| 2026-05-05 16:02 | 39.42029 | -0.29917 | 2954 ft | 180 kts | 294° |
| 2026-05-05 16:02 | 39.42591 | -0.31404 | 2797 ft | 188 kts | 295° |
| 2026-05-05 16:02 | 39.43174 | -0.32954 | 2537 ft | 198 kts | 294° |
| 2026-05-05 16:02 | 39.43769 | -0.34534 | 2318 ft | 189 kts | 295° |
| 2026-05-05 16:03 | 39.44326 | -0.36003 | 2042 ft | 175 kts | 295° |
| 2026-05-05 16:03 | 39.44844 | -0.37370 | 1806 ft | 163 kts | 295° |
| 2026-05-05 16:03 | 39.45322 | -0.38634 | 1643 ft | 150 kts | 295° |
| 2026-05-05 16:03 | 39.45783 | -0.39852 | 1423 ft | 152 kts | 295° |
| 2026-05-05 16:04 | 39.46240 | -0.41068 | 1201 ft | 151 kts | 295° |
| 2026-05-05 16:04 | 39.46703 | -0.42286 | 1032 ft | 150 kts | 294° |
| 2026-05-05 16:04 | 39.47138 | -0.43481 | 734 ft | 142 kts | 293° |
| 2026-05-05 16:04 | 39.47573 | -0.44586 | 537 ft | 136 kts | 292° |
| 2026-05-05 16:05 | 39.47979 | -0.45688 | 326 ft | 133 kts | 295° |
| 2026-05-05 16:05 | 39.48381 | -0.46713 | 200 ft | 122 kts | 294° |
| 2026-05-05 16:05 | 39.48732 | -0.47631 | 199 ft | 98 kts | 295° |
| 2026-05-05 16:05 | 39.48962 | -0.48241 | 202 ft | 60 kts | 297° |
| 2026-05-05 16:06 | 39.49105 | -0.48501 | 209 ft | 23 kts | 336° |
| 2026-05-05 16:06 | 39.49203 | -0.48485 | 215 ft | 7 kts | 43° |
| 2026-05-05 16:06 | 39.49222 | -0.48433 | 219 ft | 7 kts | 78° |
| 2026-05-05 16:06 | 39.49212 | -0.48373 | 215 ft | 9 kts | 115° |
| 2026-05-05 16:07 | 39.49178 | -0.48282 | 217 ft | 14 kts | 111° |
| 2026-05-05 16:07 | 39.49155 | -0.48146 | 208 ft | 15 kts | 57° |
| 2026-05-05 16:07 | 39.49197 | -0.48067 | 208 ft | 13 kts | 47° |
| 2026-05-05 16:07 | 39.49282 | -0.48007 | 206 ft | 15 kts | 24° |
| 2026-05-05 16:08 | 39.49354 | -0.47918 | 203 ft | 16 kts | 92° |
| 2026-05-05 16:08 | 39.49313 | -0.47826 | 203 ft | 10 kts | 128° |
| 2026-05-05 16:08 | 39.49283 | -0.47821 | 205 ft | 1 kts | 205° |
| 2026-05-05 16:08 | 39.49274 | -0.47828 | 206 ft | 2 kts | 208° |
| 2026-05-05 16:09 | 39.49264 | -0.47834 | 211 ft | 0 kts | 206° |